sensor_id;sensor_type;location;lat;lon;timestamp;P1;durP1;ratioP1;P2;durP2;ratioP2
151;SDS011;68;48.792;9.164;2023-12-20T00:00:17;13.90;;;13.20;;
151;SDS011;68;48.792;9.164;2023-12-20T00:02:44;14.45;;;13.75;;
151;SDS011;68;48.792;9.164;2023-12-20T00:05:12;14.45;;;13.75;;
151;SDS011;68;48.792;9.164;2023-12-20T00:07:39;14.00;;;13.30;;
151;SDS011;68;48.792;9.164;2023-12-20T00:10:06;13.75;;;13.05;;
151;SDS011;68;48.792;9.164;2023-12-20T00:12:33;13.50;;;12.80;;
151;SDS011;68;48.792;9.164;2023-12-20T00:15:00;13.70;;;13.00;;
151;SDS011;68;48.792;9.164;2023-12-20T00:17:28;13.77;;;13.07;;
151;SDS011;68;48.792;9.164;2023-12-20T00:19:55;13.55;;;12.85;;
151;SDS011;68;48.792;9.164;2023-12-20T00:22:21;13.85;;;13.15;;
151;SDS011;68;48.792;9.164;2023-12-20T00:24:48;13.75;;;13.05;;
151;SDS011;68;48.792;9.164;2023-12-20T00:27:15;13.88;;;13.18;;
151;SDS011;68;48.792;9.164;2023-12-20T00:29:41;13.43;;;12.73;;
151;SDS011;68;48.792;9.164;2023-12-20T00:32:12;13.20;;;12.50;;
151;SDS011;68;48.792;9.164;2023-12-20T00:34:40;13.55;;;12.85;;
151;SDS011;68;48.792;9.164;2023-12-20T00:37:07;13.55;;;12.85;;
151;SDS011;68;48.792;9.164;2023-12-20T00:39:34;13.18;;;12.48;;
151;SDS011;68;48.792;9.164;2023-12-20T00:42:01;13.93;;;13.23;;
151;SDS011;68;48.792;9.164;2023-12-20T00:44:28;13.43;;;12.73;;
151;SDS011;68;48.792;9.164;2023-12-20T00:46:54;13.85;;;13.15;;
151;SDS011;68;48.792;9.164;2023-12-20T00:49:21;13.98;;;13.27;;
151;SDS011;68;48.792;9.164;2023-12-20T00:51:49;16.77;;;13.35;;
151;SDS011;68;48.792;9.164;2023-12-20T00:54:17;13.85;;;13.15;;
151;SDS011;68;48.792;9.164;2023-12-20T00:56:44;13.65;;;12.95;;
151;SDS011;68;48.792;9.164;2023-12-20T00:59:11;14.38;;;13.52;;
151;SDS011;68;48.792;9.164;2023-12-20T01:01:38;14.32;;;13.63;;
151;SDS011;68;48.792;9.164;2023-12-20T01:04:05;14.38;;;13.68;;
151;SDS011;68;48.792;9.164;2023-12-20T01:06:31;14.23;;;13.52;;
151;SDS011;68;48.792;9.164;2023-12-20T01:09:00;13.85;;;13.15;;
151;SDS011;68;48.792;9.164;2023-12-20T01:11:26;13.88;;;13.18;;
151;SDS011;68;48.792;9.164;2023-12-20T01:13:53;13.65;;;12.95;;
151;SDS011;68;48.792;9.164;2023-12-20T01:16:20;13.90;;;13.20;;
151;SDS011;68;48.792;9.164;2023-12-20T01:18:47;14.10;;;13.10;;
151;SDS011;68;48.792;9.164;2023-12-20T01:21:14;13.60;;;12.80;;
151;SDS011;68;48.792;9.164;2023-12-20T01:23:41;14.43;;;13.65;;
151;SDS011;68;48.792;9.164;2023-12-20T01:26:09;13.57;;;12.88;;
151;SDS011;68;48.792;9.164;2023-12-20T01:28:36;13.43;;;12.73;;
151;SDS011;68;48.792;9.164;2023-12-20T01:31:03;14.13;;;13.43;;
151;SDS011;68;48.792;9.164;2023-12-20T01:33:30;13.85;;;13.15;;
151;SDS011;68;48.792;9.164;2023-12-20T01:35:57;13.80;;;13.10;;
151;SDS011;68;48.792;9.164;2023-12-20T01:38:23;13.55;;;12.85;;
151;SDS011;68;48.792;9.164;2023-12-20T01:40:50;13.30;;;12.60;;
151;SDS011;68;48.792;9.164;2023-12-20T01:43:18;13.55;;;12.85;;
151;SDS011;68;48.792;9.164;2023-12-20T01:45:45;13.38;;;12.68;;
151;SDS011;68;48.792;9.164;2023-12-20T01:48:13;13.90;;;13.20;;
151;SDS011;68;48.792;9.164;2023-12-20T01:50:41;13.35;;;12.65;;
151;SDS011;68;48.792;9.164;2023-12-20T01:53:09;13.57;;;12.88;;
151;SDS011;68;48.792;9.164;2023-12-20T01:55:38;13.52;;;12.82;;
151;SDS011;68;48.792;9.164;2023-12-20T01:58:06;13.18;;;12.48;;
151;SDS011;68;48.792;9.164;2023-12-20T02:00:36;13.32;;;12.63;;
151;SDS011;68;48.792;9.164;2023-12-20T02:03:03;13.40;;;12.70;;
151;SDS011;68;48.792;9.164;2023-12-20T02:05:31;13.25;;;12.55;;
151;SDS011;68;48.792;9.164;2023-12-20T02:07:57;13.80;;;13.10;;
151;SDS011;68;48.792;9.164;2023-12-20T02:10:24;13.30;;;12.60;;
151;SDS011;68;48.792;9.164;2023-12-20T02:12:51;13.20;;;12.50;;
151;SDS011;68;48.792;9.164;2023-12-20T02:15:18;13.77;;;13.07;;
151;SDS011;68;48.792;9.164;2023-12-20T02:17:47;14.45;;;13.75;;
151;SDS011;68;48.792;9.164;2023-12-20T02:20:15;14.18;;;13.48;;
151;SDS011;68;48.792;9.164;2023-12-20T02:22:43;13.90;;;13.20;;
151;SDS011;68;48.792;9.164;2023-12-20T02:25:10;13.80;;;13.10;;
151;SDS011;68;48.792;9.164;2023-12-20T02:27:37;13.50;;;12.80;;
151;SDS011;68;48.792;9.164;2023-12-20T02:30:05;14.05;;;13.35;;
151;SDS011;68;48.792;9.164;2023-12-20T02:32:32;14.20;;;13.50;;
151;SDS011;68;48.792;9.164;2023-12-20T02:34:59;13.38;;;12.68;;
151;SDS011;68;48.792;9.164;2023-12-20T02:37:26;14.15;;;13.45;;
151;SDS011;68;48.792;9.164;2023-12-20T02:39:54;14.00;;;13.30;;
151;SDS011;68;48.792;9.164;2023-12-20T02:42:21;13.20;;;12.50;;
151;SDS011;68;48.792;9.164;2023-12-20T02:44:48;14.00;;;13.30;;
151;SDS011;68;48.792;9.164;2023-12-20T02:47:14;13.13;;;12.43;;
151;SDS011;68;48.792;9.164;2023-12-20T02:49:40;13.63;;;12.93;;
151;SDS011;68;48.792;9.164;2023-12-20T02:52:07;14.15;;;13.45;;
151;SDS011;68;48.792;9.164;2023-12-20T02:54:34;13.80;;;13.10;;
151;SDS011;68;48.792;9.164;2023-12-20T02:57:02;14.30;;;13.60;;
151;SDS011;68;48.792;9.164;2023-12-20T02:59:29;14.00;;;13.30;;
151;SDS011;68;48.792;9.164;2023-12-20T03:01:56;14.05;;;13.35;;
151;SDS011;68;48.792;9.164;2023-12-20T03:04:23;14.05;;;13.35;;
151;SDS011;68;48.792;9.164;2023-12-20T03:06:50;14.23;;;13.52;;
151;SDS011;68;48.792;9.164;2023-12-20T03:09:17;13.65;;;12.95;;
151;SDS011;68;48.792;9.164;2023-12-20T03:11:43;13.10;;;12.40;;
151;SDS011;68;48.792;9.164;2023-12-20T03:14:11;13.02;;;12.32;;
151;SDS011;68;48.792;9.164;2023-12-20T03:16:38;12.18;;;11.57;;
151;SDS011;68;48.792;9.164;2023-12-20T03:19:05;12.73;;;12.02;;
151;SDS011;68;48.792;9.164;2023-12-20T03:21:32;12.00;;;11.40;;
151;SDS011;68;48.792;9.164;2023-12-20T03:23:59;12.48;;;11.88;;
151;SDS011;68;48.792;9.164;2023-12-20T03:26:26;12.27;;;11.68;;
151;SDS011;68;48.792;9.164;2023-12-20T03:28:53;12.85;;;12.15;;
151;SDS011;68;48.792;9.164;2023-12-20T03:31:21;12.00;;;11.40;;
151;SDS011;68;48.792;9.164;2023-12-20T03:33:48;12.13;;;11.52;;
151;SDS011;68;48.792;9.164;2023-12-20T03:36:16;11.55;;;10.95;;
151;SDS011;68;48.792;9.164;2023-12-20T03:38:42;11.93;;;11.32;;
151;SDS011;68;48.792;9.164;2023-12-20T03:41:09;11.70;;;11.10;;
151;SDS011;68;48.792;9.164;2023-12-20T03:43:36;11.65;;;11.05;;
151;SDS011;68;48.792;9.164;2023-12-20T03:46:03;12.25;;;11.65;;
151;SDS011;68;48.792;9.164;2023-12-20T03:48:31;12.95;;;12.25;;
151;SDS011;68;48.792;9.164;2023-12-20T03:50:58;12.25;;;11.65;;
151;SDS011;68;48.792;9.164;2023-12-20T03:53:24;12.00;;;11.40;;
151;SDS011;68;48.792;9.164;2023-12-20T03:55:51;11.90;;;11.30;;
151;SDS011;68;48.792;9.164;2023-12-20T03:58:20;11.95;;;11.35;;
151;SDS011;68;48.792;9.164;2023-12-20T04:00:47;12.05;;;11.45;;
151;SDS011;68;48.792;9.164;2023-12-20T04:03:14;12.23;;;11.63;;
151;SDS011;68;48.792;9.164;2023-12-20T04:05:42;12.35;;;11.75;;
151;SDS011;68;48.792;9.164;2023-12-20T04:08:09;12.18;;;11.57;;
151;SDS011;68;48.792;9.164;2023-12-20T04:10:37;11.70;;;11.10;;
151;SDS011;68;48.792;9.164;2023-12-20T04:13:03;11.85;;;11.25;;
151;SDS011;68;48.792;9.164;2023-12-20T04:15:30;12.88;;;12.18;;
151;SDS011;68;48.792;9.164;2023-12-20T04:17:57;12.07;;;11.48;;
151;SDS011;68;48.792;9.164;2023-12-20T04:20:24;12.18;;;11.57;;
151;SDS011;68;48.792;9.164;2023-12-20T04:22:52;12.75;;;12.05;;
151;SDS011;68;48.792;9.164;2023-12-20T04:25:18;11.95;;;11.38;;
151;SDS011;68;48.792;9.164;2023-12-20T04:27:45;12.32;;;11.73;;
151;SDS011;68;48.792;9.164;2023-12-20T04:30:13;12.30;;;11.70;;
151;SDS011;68;48.792;9.164;2023-12-20T04:32:40;12.50;;;11.90;;
151;SDS011;68;48.792;9.164;2023-12-20T04:35:06;12.40;;;11.80;;
151;SDS011;68;48.792;9.164;2023-12-20T04:37:34;12.85;;;12.15;;
151;SDS011;68;48.792;9.164;2023-12-20T04:40:02;12.30;;;11.70;;
151;SDS011;68;48.792;9.164;2023-12-20T04:42:30;12.30;;;11.70;;
151;SDS011;68;48.792;9.164;2023-12-20T04:44:57;11.95;;;11.35;;
151;SDS011;68;48.792;9.164;2023-12-20T04:47:23;12.10;;;11.50;;
151;SDS011;68;48.792;9.164;2023-12-20T04:49:50;11.95;;;11.35;;
151;SDS011;68;48.792;9.164;2023-12-20T04:52:17;12.48;;;11.88;;
151;SDS011;68;48.792;9.164;2023-12-20T04:54:44;12.38;;;11.77;;
151;SDS011;68;48.792;9.164;2023-12-20T04:57:12;12.50;;;11.90;;
151;SDS011;68;48.792;9.164;2023-12-20T04:59:39;12.18;;;11.57;;
151;SDS011;68;48.792;9.164;2023-12-20T05:02:06;12.88;;;12.18;;
151;SDS011;68;48.792;9.164;2023-12-20T05:04:33;12.45;;;11.85;;
151;SDS011;68;48.792;9.164;2023-12-20T05:07:00;12.80;;;12.10;;
151;SDS011;68;48.792;9.164;2023-12-20T05:09:26;13.35;;;12.65;;
151;SDS011;68;48.792;9.164;2023-12-20T05:11:53;13.32;;;12.63;;
151;SDS011;68;48.792;9.164;2023-12-20T05:14:21;13.30;;;12.60;;
151;SDS011;68;48.792;9.164;2023-12-20T05:16:48;12.10;;;11.50;;
151;SDS011;68;48.792;9.164;2023-12-20T05:19:15;12.15;;;11.55;;
151;SDS011;68;48.792;9.164;2023-12-20T05:21:42;11.63;;;11.02;;
151;SDS011;68;48.792;9.164;2023-12-20T05:24:08;12.15;;;11.55;;
151;SDS011;68;48.792;9.164;2023-12-20T05:26:35;11.93;;;11.32;;
151;SDS011;68;48.792;9.164;2023-12-20T05:29:02;11.90;;;11.30;;
151;SDS011;68;48.792;9.164;2023-12-20T05:31:31;12.52;;;11.90;;
151;SDS011;68;48.792;9.164;2023-12-20T05:33:57;12.60;;;11.95;;
151;SDS011;68;48.792;9.164;2023-12-20T05:36:24;12.20;;;11.60;;
151;SDS011;68;48.792;9.164;2023-12-20T05:38:51;11.90;;;11.30;;
151;SDS011;68;48.792;9.164;2023-12-20T05:41:18;12.18;;;11.57;;
151;SDS011;68;48.792;9.164;2023-12-20T05:43:46;11.90;;;11.30;;
151;SDS011;68;48.792;9.164;2023-12-20T05:46:13;11.90;;;11.30;;
151;SDS011;68;48.792;9.164;2023-12-20T05:48:41;12.40;;;11.80;;
151;SDS011;68;48.792;9.164;2023-12-20T05:51:10;12.30;;;11.70;;
151;SDS011;68;48.792;9.164;2023-12-20T05:53:37;12.23;;;11.63;;
151;SDS011;68;48.792;9.164;2023-12-20T05:56:04;12.10;;;11.50;;
151;SDS011;68;48.792;9.164;2023-12-20T05:58:31;11.95;;;11.35;;
151;SDS011;68;48.792;9.164;2023-12-20T06:00:58;12.05;;;11.45;;
151;SDS011;68;48.792;9.164;2023-12-20T06:03:25;13.65;;;12.95;;
151;SDS011;68;48.792;9.164;2023-12-20T06:05:53;12.45;;;11.85;;
151;SDS011;68;48.792;9.164;2023-12-20T06:08:20;14.43;;;11.85;;
151;SDS011;68;48.792;9.164;2023-12-20T06:10:47;12.05;;;11.45;;
151;SDS011;68;48.792;9.164;2023-12-20T06:13:14;12.32;;;11.73;;
151;SDS011;68;48.792;9.164;2023-12-20T06:15:40;13.05;;;12.35;;
151;SDS011;68;48.792;9.164;2023-12-20T06:18:07;12.80;;;12.10;;
151;SDS011;68;48.792;9.164;2023-12-20T06:20:35;13.40;;;12.70;;
151;SDS011;68;48.792;9.164;2023-12-20T06:23:03;14.07;;;13.38;;
151;SDS011;68;48.792;9.164;2023-12-20T06:25:30;13.23;;;12.52;;
151;SDS011;68;48.792;9.164;2023-12-20T06:27:57;12.90;;;12.20;;
151;SDS011;68;48.792;9.164;2023-12-20T06:30:23;13.13;;;12.43;;
151;SDS011;68;48.792;9.164;2023-12-20T06:32:52;13.50;;;12.80;;
151;SDS011;68;48.792;9.164;2023-12-20T06:35:19;13.18;;;12.48;;
151;SDS011;68;48.792;9.164;2023-12-20T06:37:46;13.85;;;13.15;;
151;SDS011;68;48.792;9.164;2023-12-20T06:40:14;13.60;;;12.90;;
151;SDS011;68;48.792;9.164;2023-12-20T06:42:42;13.10;;;12.40;;
151;SDS011;68;48.792;9.164;2023-12-20T06:45:09;12.75;;;12.05;;
151;SDS011;68;48.792;9.164;2023-12-20T06:47:37;12.93;;;12.23;;
151;SDS011;68;48.792;9.164;2023-12-20T06:50:04;13.23;;;12.52;;
151;SDS011;68;48.792;9.164;2023-12-20T06:52:33;12.40;;;11.80;;
151;SDS011;68;48.792;9.164;2023-12-20T06:55:00;12.10;;;11.50;;
151;SDS011;68;48.792;9.164;2023-12-20T06:57:28;13.05;;;12.35;;
151;SDS011;68;48.792;9.164;2023-12-20T06:59:55;12.45;;;11.85;;
151;SDS011;68;48.792;9.164;2023-12-20T07:02:22;13.30;;;12.60;;
151;SDS011;68;48.792;9.164;2023-12-20T07:04:49;12.82;;;12.13;;
151;SDS011;68;48.792;9.164;2023-12-20T07:07:16;12.43;;;11.82;;
151;SDS011;68;48.792;9.164;2023-12-20T07:09:43;12.70;;;12.00;;
151;SDS011;68;48.792;9.164;2023-12-20T07:12:10;13.35;;;12.65;;
151;SDS011;68;48.792;9.164;2023-12-20T07:14:38;13.43;;;12.73;;
151;SDS011;68;48.792;9.164;2023-12-20T07:17:05;14.00;;;13.30;;
151;SDS011;68;48.792;9.164;2023-12-20T07:19:36;13.60;;;12.90;;
151;SDS011;68;48.792;9.164;2023-12-20T07:22:03;14.32;;;13.63;;
151;SDS011;68;48.792;9.164;2023-12-20T07:24:30;15.30;;;14.50;;
151;SDS011;68;48.792;9.164;2023-12-20T07:26:57;15.40;;;14.60;;
151;SDS011;68;48.792;9.164;2023-12-20T07:29:24;15.27;;;14.48;;
151;SDS011;68;48.792;9.164;2023-12-20T07:31:53;16.02;;;15.23;;
151;SDS011;68;48.792;9.164;2023-12-20T07:34:20;15.75;;;14.95;;
151;SDS011;68;48.792;9.164;2023-12-20T07:36:46;15.10;;;14.30;;
151;SDS011;68;48.792;9.164;2023-12-20T07:39:13;16.17;;;15.38;;
151;SDS011;68;48.792;9.164;2023-12-20T07:41:40;16.15;;;15.35;;
151;SDS011;68;48.792;9.164;2023-12-20T07:44:07;14.80;;;14.02;;
151;SDS011;68;48.792;9.164;2023-12-20T07:46:34;15.70;;;14.90;;
151;SDS011;68;48.792;9.164;2023-12-20T07:49:02;15.98;;;15.18;;
151;SDS011;68;48.792;9.164;2023-12-20T07:51:30;16.20;;;15.40;;
151;SDS011;68;48.792;9.164;2023-12-20T07:53:56;16.15;;;15.35;;
151;SDS011;68;48.792;9.164;2023-12-20T07:56:23;15.85;;;15.05;;
151;SDS011;68;48.792;9.164;2023-12-20T07:58:50;16.52;;;15.73;;
151;SDS011;68;48.792;9.164;2023-12-20T08:01:17;17.58;;;16.67;;
151;SDS011;68;48.792;9.164;2023-12-20T08:03:44;16.95;;;16.05;;
151;SDS011;68;48.792;9.164;2023-12-20T08:06:13;17.17;;;16.27;;
151;SDS011;68;48.792;9.164;2023-12-20T08:08:39;15.77;;;14.98;;
151;SDS011;68;48.792;9.164;2023-12-20T08:11:06;16.15;;;15.35;;
151;SDS011;68;48.792;9.164;2023-12-20T08:13:33;16.55;;;15.75;;
151;SDS011;68;48.792;9.164;2023-12-20T08:16:00;17.20;;;16.30;;
151;SDS011;68;48.792;9.164;2023-12-20T08:18:28;15.77;;;14.95;;
151;SDS011;68;48.792;9.164;2023-12-20T08:20:54;15.95;;;15.15;;
151;SDS011;68;48.792;9.164;2023-12-20T08:23:23;16.75;;;15.90;;
151;SDS011;68;48.792;9.164;2023-12-20T08:25:49;16.02;;;15.23;;
151;SDS011;68;48.792;9.164;2023-12-20T08:28:16;16.50;;;15.70;;
151;SDS011;68;48.792;9.164;2023-12-20T08:30:43;19.15;;;15.88;;
151;SDS011;68;48.792;9.164;2023-12-20T08:33:10;16.35;;;15.52;;
151;SDS011;68;48.792;9.164;2023-12-20T08:35:38;16.65;;;14.98;;
151;SDS011;68;48.792;9.164;2023-12-20T08:38:05;15.57;;;14.77;;
151;SDS011;68;48.792;9.164;2023-12-20T08:40:33;15.50;;;14.70;;
151;SDS011;68;48.792;9.164;2023-12-20T08:43:00;16.08;;;15.25;;
151;SDS011;68;48.792;9.164;2023-12-20T08:45:27;15.95;;;15.15;;
151;SDS011;68;48.792;9.164;2023-12-20T08:47:54;16.52;;;15.73;;
151;SDS011;68;48.792;9.164;2023-12-20T08:50:21;16.33;;;15.52;;
151;SDS011;68;48.792;9.164;2023-12-20T08:52:48;15.70;;;14.90;;
151;SDS011;68;48.792;9.164;2023-12-20T08:55:15;16.00;;;15.20;;
151;SDS011;68;48.792;9.164;2023-12-20T08:57:44;15.70;;;14.90;;
151;SDS011;68;48.792;9.164;2023-12-20T09:00:11;16.30;;;15.50;;
151;SDS011;68;48.792;9.164;2023-12-20T09:02:39;15.30;;;14.50;;
151;SDS011;68;48.792;9.164;2023-12-20T09:05:06;16.75;;;15.27;;
151;SDS011;68;48.792;9.164;2023-12-20T09:07:33;15.52;;;14.73;;
151;SDS011;68;48.792;9.164;2023-12-20T09:10:00;15.93;;;15.13;;
151;SDS011;68;48.792;9.164;2023-12-20T09:12:27;16.40;;;15.60;;
151;SDS011;68;48.792;9.164;2023-12-20T09:14:55;15.60;;;14.70;;
151;SDS011;68;48.792;9.164;2023-12-20T09:17:22;15.60;;;14.80;;
151;SDS011;68;48.792;9.164;2023-12-20T09:19:49;15.82;;;15.02;;
151;SDS011;68;48.792;9.164;2023-12-20T09:22:17;15.52;;;14.73;;
151;SDS011;68;48.792;9.164;2023-12-20T09:24:44;15.77;;;14.98;;
151;SDS011;68;48.792;9.164;2023-12-20T09:27:11;15.48;;;14.60;;
151;SDS011;68;48.792;9.164;2023-12-20T09:29:38;15.10;;;14.30;;
151;SDS011;68;48.792;9.164;2023-12-20T09:32:06;15.05;;;14.25;;
151;SDS011;68;48.792;9.164;2023-12-20T09:34:33;15.00;;;14.20;;
151;SDS011;68;48.792;9.164;2023-12-20T09:36:59;17.55;;;13.48;;
151;SDS011;68;48.792;9.164;2023-12-20T09:39:28;14.10;;;13.40;;
151;SDS011;68;48.792;9.164;2023-12-20T09:42:00;13.50;;;12.80;;
151;SDS011;68;48.792;9.164;2023-12-20T09:44:27;17.73;;;14.15;;
151;SDS011;68;48.792;9.164;2023-12-20T09:46:55;15.52;;;13.48;;
151;SDS011;68;48.792;9.164;2023-12-20T09:49:24;15.40;;;13.63;;
151;SDS011;68;48.792;9.164;2023-12-20T09:51:54;15.10;;;14.02;;
151;SDS011;68;48.792;9.164;2023-12-20T09:54:21;14.85;;;13.70;;
151;SDS011;68;48.792;9.164;2023-12-20T09:56:49;16.77;;;13.25;;
151;SDS011;68;48.792;9.164;2023-12-20T09:59:16;15.65;;;12.90;;
151;SDS011;68;48.792;9.164;2023-12-20T10:01:43;14.65;;;13.75;;
151;SDS011;68;48.792;9.164;2023-12-20T10:04:10;13.70;;;13.02;;
151;SDS011;68;48.792;9.164;2023-12-20T10:06:40;18.20;;;13.57;;
151;SDS011;68;48.792;9.164;2023-12-20T10:09:08;13.48;;;12.77;;
151;SDS011;68;48.792;9.164;2023-12-20T10:11:35;15.57;;;13.48;;
151;SDS011;68;48.792;9.164;2023-12-20T10:14:03;15.82;;;13.30;;
151;SDS011;68;48.792;9.164;2023-12-20T10:16:30;14.25;;;13.55;;
151;SDS011;68;48.792;9.164;2023-12-20T10:18:57;17.55;;;12.50;;
151;SDS011;68;48.792;9.164;2023-12-20T10:21:25;12.85;;;12.15;;
151;SDS011;68;48.792;9.164;2023-12-20T10:23:54;15.02;;;12.93;;
151;SDS011;68;48.792;9.164;2023-12-20T10:26:22;15.85;;;13.00;;
151;SDS011;68;48.792;9.164;2023-12-20T10:28:50;13.57;;;12.88;;
151;SDS011;68;48.792;9.164;2023-12-20T10:31:27;14.00;;;13.32;;
151;SDS011;68;48.792;9.164;2023-12-20T10:33:56;13.07;;;12.40;;
151;SDS011;68;48.792;9.164;2023-12-20T10:36:24;13.57;;;12.75;;
151;SDS011;68;48.792;9.164;2023-12-20T10:38:52;17.67;;;13.75;;
151;SDS011;68;48.792;9.164;2023-12-20T10:41:23;16.25;;;13.68;;
151;SDS011;68;48.792;9.164;2023-12-20T10:43:52;15.52;;;13.02;;
151;SDS011;68;48.792;9.164;2023-12-20T10:46:21;16.05;;;13.80;;
151;SDS011;68;48.792;9.164;2023-12-20T10:48:48;15.38;;;13.65;;
151;SDS011;68;48.792;9.164;2023-12-20T10:51:19;13.88;;;13.20;;
151;SDS011;68;48.792;9.164;2023-12-20T10:53:47;17.70;;;13.52;;
151;SDS011;68;48.792;9.164;2023-12-20T10:56:15;17.35;;;13.40;;
151;SDS011;68;48.792;9.164;2023-12-20T10:58:44;16.92;;;13.68;;
151;SDS011;68;48.792;9.164;2023-12-20T11:01:12;15.98;;;13.80;;
151;SDS011;68;48.792;9.164;2023-12-20T11:03:42;17.88;;;13.63;;
151;SDS011;68;48.792;9.164;2023-12-20T11:06:12;16.50;;;13.70;;
151;SDS011;68;48.792;9.164;2023-12-20T11:08:47;17.17;;;13.02;;
151;SDS011;68;48.792;9.164;2023-12-20T11:11:25;14.18;;;13.35;;
151;SDS011;68;48.792;9.164;2023-12-20T11:13:58;14.10;;;12.60;;
151;SDS011;68;48.792;9.164;2023-12-20T11:16:28;15.02;;;12.65;;
151;SDS011;68;48.792;9.164;2023-12-20T11:18:54;14.73;;;13.13;;
151;SDS011;68;48.792;9.164;2023-12-20T11:21:21;17.05;;;13.00;;
151;SDS011;68;48.792;9.164;2023-12-20T11:23:48;15.00;;;12.25;;
151;SDS011;68;48.792;9.164;2023-12-20T11:26:15;16.00;;;12.57;;
151;SDS011;68;48.792;9.164;2023-12-20T11:28:42;16.67;;;12.65;;
151;SDS011;68;48.792;9.164;2023-12-20T11:31:12;13.65;;;12.65;;
151;SDS011;68;48.792;9.164;2023-12-20T11:33:42;13.80;;;12.60;;
151;SDS011;68;48.792;9.164;2023-12-20T11:36:13;15.00;;;13.18;;
151;SDS011;68;48.792;9.164;2023-12-20T11:38:49;13.45;;;12.75;;
151;SDS011;68;48.792;9.164;2023-12-20T11:41:23;14.10;;;12.32;;
151;SDS011;68;48.792;9.164;2023-12-20T11:43:51;17.20;;;13.05;;
151;SDS011;68;48.792;9.164;2023-12-20T11:46:21;14.07;;;12.40;;
151;SDS011;68;48.792;9.164;2023-12-20T11:48:48;15.15;;;12.48;;
151;SDS011;68;48.792;9.164;2023-12-20T11:51:15;16.45;;;12.52;;
151;SDS011;68;48.792;9.164;2023-12-20T11:53:42;13.00;;;12.30;;
151;SDS011;68;48.792;9.164;2023-12-20T11:56:08;13.53;;;12.00;;
151;SDS011;68;48.792;9.164;2023-12-20T11:58:36;14.13;;;12.35;;
151;SDS011;68;48.792;9.164;2023-12-20T12:01:04;14.70;;;13.00;;
151;SDS011;68;48.792;9.164;2023-12-20T12:03:33;15.15;;;12.38;;
151;SDS011;68;48.792;9.164;2023-12-20T12:06:00;14.70;;;12.60;;
151;SDS011;68;48.792;9.164;2023-12-20T12:08:29;18.02;;;12.73;;
151;SDS011;68;48.792;9.164;2023-12-20T12:10:56;13.68;;;12.85;;
151;SDS011;68;48.792;9.164;2023-12-20T12:13:23;16.98;;;13.30;;
151;SDS011;68;48.792;9.164;2023-12-20T12:15:52;19.38;;;13.15;;
151;SDS011;68;48.792;9.164;2023-12-20T12:18:19;16.63;;;13.18;;
151;SDS011;68;48.792;9.164;2023-12-20T12:20:48;14.98;;;12.93;;
151;SDS011;68;48.792;9.164;2023-12-20T12:23:15;19.25;;;13.82;;
151;SDS011;68;48.792;9.164;2023-12-20T12:25:49;16.27;;;13.75;;
151;SDS011;68;48.792;9.164;2023-12-20T12:28:16;13.73;;;12.80;;
151;SDS011;68;48.792;9.164;2023-12-20T12:30:43;18.33;;;13.57;;
151;SDS011;68;48.792;9.164;2023-12-20T12:33:10;14.13;;;13.40;;
151;SDS011;68;48.792;9.164;2023-12-20T12:35:37;18.52;;;13.43;;
151;SDS011;68;48.792;9.164;2023-12-20T12:38:06;17.17;;;13.77;;
151;SDS011;68;48.792;9.164;2023-12-20T12:40:34;15.00;;;12.90;;
151;SDS011;68;48.792;9.164;2023-12-20T12:43:01;14.13;;;13.00;;
151;SDS011;68;48.792;9.164;2023-12-20T12:45:29;20.30;;;13.85;;
151;SDS011;68;48.792;9.164;2023-12-20T12:47:56;18.60;;;14.98;;
151;SDS011;68;48.792;9.164;2023-12-20T12:50:22;14.52;;;13.82;;
151;SDS011;68;48.792;9.164;2023-12-20T12:52:49;21.05;;;13.20;;
151;SDS011;68;48.792;9.164;2023-12-20T12:55:17;13.63;;;12.93;;
151;SDS011;68;48.792;9.164;2023-12-20T12:57:44;15.25;;;14.10;;
151;SDS011;68;48.792;9.164;2023-12-20T13:00:11;15.45;;;13.23;;
151;SDS011;68;48.792;9.164;2023-12-20T13:02:38;16.45;;;13.18;;
151;SDS011;68;48.792;9.164;2023-12-20T13:05:07;16.15;;;13.38;;
151;SDS011;68;48.792;9.164;2023-12-20T13:07:34;15.43;;;12.80;;
151;SDS011;68;48.792;9.164;2023-12-20T13:10:02;14.98;;;13.07;;
151;SDS011;68;48.792;9.164;2023-12-20T13:12:32;15.10;;;12.85;;
151;SDS011;68;48.792;9.164;2023-12-20T13:14:59;13.30;;;12.60;;
151;SDS011;68;48.792;9.164;2023-12-20T13:17:26;13.68;;;12.98;;
151;SDS011;68;48.792;9.164;2023-12-20T13:19:53;15.63;;;12.75;;
151;SDS011;68;48.792;9.164;2023-12-20T13:22:19;13.35;;;12.65;;
151;SDS011;68;48.792;9.164;2023-12-20T13:24:46;14.43;;;13.73;;
151;SDS011;68;48.792;9.164;2023-12-20T13:27:13;14.60;;;13.30;;
151;SDS011;68;48.792;9.164;2023-12-20T13:29:41;16.10;;;13.65;;
151;SDS011;68;48.792;9.164;2023-12-20T13:32:08;13.43;;;12.73;;
151;SDS011;68;48.792;9.164;2023-12-20T13:34:35;16.20;;;13.90;;
151;SDS011;68;48.792;9.164;2023-12-20T13:37:01;17.63;;;13.57;;
151;SDS011;68;48.792;9.164;2023-12-20T13:39:29;14.18;;;13.48;;
151;SDS011;68;48.792;9.164;2023-12-20T13:41:57;14.65;;;12.75;;
151;SDS011;68;48.792;9.164;2023-12-20T13:44:23;17.17;;;12.02;;
151;SDS011;68;48.792;9.164;2023-12-20T13:46:51;14.35;;;12.32;;
151;SDS011;68;48.792;9.164;2023-12-20T13:49:18;15.35;;;12.75;;
151;SDS011;68;48.792;9.164;2023-12-20T13:51:46;14.95;;;12.23;;
151;SDS011;68;48.792;9.164;2023-12-20T13:54:13;15.38;;;12.90;;
151;SDS011;68;48.792;9.164;2023-12-20T13:56:41;13.70;;;12.40;;
151;SDS011;68;48.792;9.164;2023-12-20T13:59:08;12.77;;;12.07;;
151;SDS011;68;48.792;9.164;2023-12-20T14:01:35;14.38;;;13.30;;
151;SDS011;68;48.792;9.164;2023-12-20T14:04:03;15.63;;;12.57;;
151;SDS011;68;48.792;9.164;2023-12-20T14:06:30;14.15;;;12.63;;
151;SDS011;68;48.792;9.164;2023-12-20T14:08:57;17.52;;;12.50;;
151;SDS011;68;48.792;9.164;2023-12-20T14:11:25;14.90;;;13.15;;
151;SDS011;68;48.792;9.164;2023-12-20T14:13:52;14.95;;;12.57;;
151;SDS011;68;48.792;9.164;2023-12-20T14:16:22;16.25;;;12.85;;
151;SDS011;68;48.792;9.164;2023-12-20T14:18:49;15.90;;;13.27;;
151;SDS011;68;48.792;9.164;2023-12-20T14:21:19;16.13;;;13.10;;
151;SDS011;68;48.792;9.164;2023-12-20T14:23:46;15.57;;;12.98;;
151;SDS011;68;48.792;9.164;2023-12-20T14:26:12;18.85;;;12.98;;
151;SDS011;68;48.792;9.164;2023-12-20T14:28:40;18.65;;;12.98;;
151;SDS011;68;48.792;9.164;2023-12-20T14:31:07;13.70;;;12.55;;
151;SDS011;68;48.792;9.164;2023-12-20T14:33:35;14.77;;;12.63;;
151;SDS011;68;48.792;9.164;2023-12-20T14:36:03;13.65;;;12.60;;
151;SDS011;68;48.792;9.164;2023-12-20T14:38:31;17.42;;;12.80;;
151;SDS011;68;48.792;9.164;2023-12-20T14:40:58;13.90;;;12.85;;
151;SDS011;68;48.792;9.164;2023-12-20T14:43:25;18.08;;;12.88;;
151;SDS011;68;48.792;9.164;2023-12-20T14:45:52;15.32;;;13.05;;
151;SDS011;68;48.792;9.164;2023-12-20T14:48:19;14.07;;;12.90;;
151;SDS011;68;48.792;9.164;2023-12-20T14:50:46;14.45;;;12.98;;
151;SDS011;68;48.792;9.164;2023-12-20T14:53:13;13.68;;;12.25;;
151;SDS011;68;48.792;9.164;2023-12-20T14:55:42;16.25;;;12.93;;
151;SDS011;68;48.792;9.164;2023-12-20T14:58:09;18.30;;;13.75;;
151;SDS011;68;48.792;9.164;2023-12-20T15:00:36;16.27;;;13.30;;
151;SDS011;68;48.792;9.164;2023-12-20T15:03:03;15.65;;;13.02;;
151;SDS011;68;48.792;9.164;2023-12-20T15:05:31;15.77;;;12.90;;
151;SDS011;68;48.792;9.164;2023-12-20T15:07:58;15.40;;;12.85;;
151;SDS011;68;48.792;9.164;2023-12-20T15:10:25;16.27;;;12.18;;
151;SDS011;68;48.792;9.164;2023-12-20T15:12:53;14.15;;;12.13;;
151;SDS011;68;48.792;9.164;2023-12-20T15:15:20;17.20;;;13.20;;
151;SDS011;68;48.792;9.164;2023-12-20T15:17:49;15.57;;;12.40;;
151;SDS011;68;48.792;9.164;2023-12-20T15:20:15;12.73;;;12.02;;
151;SDS011;68;48.792;9.164;2023-12-20T15:22:42;13.05;;;12.32;;
151;SDS011;68;48.792;9.164;2023-12-20T15:25:10;17.48;;;12.48;;
151;SDS011;68;48.792;9.164;2023-12-20T15:27:44;16.52;;;12.90;;
151;SDS011;68;48.792;9.164;2023-12-20T15:30:15;14.20;;;12.73;;